CYTQ

Tasiujaq Airport

Tasiujaq, Quebec, Canada
METAR CYTQ 161700Z 22019G28KT 15SM FEW050 BKN100 17/06 A2974 RMK SC1AC6 SLP073 DENSITY ALT 700FT
Observed Flight Rules
Aug-16 @ 17:00 UTC (36 minutes ago) Visual Flight Rules
Wind Visibility Clouds
220° at 19 knots
 Gusting to 28 knots
15 miles
  • Few at 5,000' AGL
  • Broken at 10,000' AGL
Temperatures Readings
Current 17°C / 63°F
Dewpoint 6°C / 43°F
Humidity 49%
Altimeter 29.74" Hg
Pressure 1007.3 hPa
Elevation 31
METAR CYTQ 161700Z 22019G28KT 15SM FEW050 BKN100 17/06 A2974 RMK SC1AC6 SLP073 DENSITY ALT 700FT
Observed Flight Rules
Aug-16 @ 17:00 UTC
(36 minutes ago)
VFR
Wind Visibility
220° at 19 knots
 Gusting to 28 knots
15 miles
Clouds
  • Few at 5,000' AGL
  • Broken at 10,000' AGL
Temperature Dewpoint
17°C / 63°F 6°C / 43°F
Humidity Altimeter Pressure
49% 29.74" Hg 1007.3 hPa